createdAt,value
2023-02-11T00:01:11.593Z,24.20
2023-02-11T00:03:39.384Z,32.90
2023-02-11T00:06:11.463Z,24.80
2023-02-11T00:08:39.897Z,22.97
2023-02-11T00:11:07.632Z,16.60
2023-02-11T00:13:34.834Z,35.43
2023-02-11T00:16:10.036Z,29.20
2023-02-11T00:18:37.388Z,30.63
2023-02-11T00:21:15.693Z,27.03
2023-02-11T00:23:44.068Z,30.47
2023-02-11T00:26:15.047Z,24.90
2023-02-11T00:28:44.293Z,27.27
2023-02-11T00:31:13.604Z,34.67
2023-02-11T00:33:41.413Z,28.90
2023-02-11T00:36:13.055Z,23.70
2023-02-11T00:38:40.275Z,30.87
2023-02-11T00:41:07.590Z,32.37
2023-02-11T00:43:35.830Z,27.97
2023-02-11T00:46:03.717Z,26.53
2023-02-11T00:48:31.728Z,33.73
2023-02-11T00:51:01.801Z,31.20
2023-02-11T00:53:29.010Z,31.07
2023-02-11T00:55:56.374Z,24.27
2023-02-11T00:58:27.114Z,28.13
2023-02-11T01:00:56.467Z,25.10
2023-02-11T01:03:25.241Z,28.57
2023-02-11T01:05:53.071Z,27.33
2023-02-11T01:08:20.422Z,23.10
2023-02-11T01:10:55.873Z,31.70
2023-02-11T01:13:24.442Z,23.07
2023-02-11T01:15:54.914Z,30.77
2023-02-11T01:18:22.201Z,22.00
2023-02-11T01:20:51.339Z,30.27
2023-02-11T01:23:18.933Z,33.80
2023-02-11T01:25:46.678Z,32.93
2023-02-11T01:28:34.331Z,28.63
2023-02-11T01:31:02.872Z,32.70
2023-02-11T01:33:30.744Z,25.03
2023-02-11T01:36:03.866Z,28.83
2023-02-11T01:38:32.251Z,28.13
2023-02-11T01:41:03.154Z,28.53
2023-02-11T01:43:44.106Z,28.53
2023-02-11T01:46:27.247Z,21.60
2023-02-11T01:49:10.464Z,31.23
2023-02-11T01:51:42.486Z,31.60
2023-02-11T01:54:32.662Z,35.43
2023-02-11T01:57:20.398Z,36.43
2023-02-11T02:00:12.553Z,30.03
2023-02-11T02:03:09.779Z,23.17
2023-02-11T02:05:59.968Z,26.33
2023-02-11T02:08:43.584Z,25.97
2023-02-11T02:11:11.664Z,27.63
2023-02-11T02:13:38.985Z,27.40
2023-02-11T02:16:14.050Z,27.27
2023-02-11T02:19:13.293Z,30.87
2023-02-11T02:22:13.992Z,27.53
2023-02-11T02:25:00.830Z,26.73
2023-02-11T02:27:37.570Z,24.03
2023-02-11T02:30:39.770Z,31.50
2023-02-11T02:33:37.665Z,20.63
2023-02-11T02:36:13.702Z,24.53
2023-02-11T02:39:17.581Z,26.10
2023-02-11T02:41:45.845Z,29.87
2023-02-11T02:44:13.127Z,25.27
2023-02-11T02:46:40.433Z,23.33
2023-02-11T02:49:13.914Z,29.67
2023-02-11T02:52:02.661Z,31.33
2023-02-11T02:54:53.042Z,32.83
2023-02-11T02:57:48.346Z,22.70
2023-02-11T03:00:30.882Z,29.87
2023-02-11T03:03:20.230Z,22.67
2023-02-11T03:05:56.799Z,23.47
2023-02-11T03:08:32.138Z,16.97
2023-02-11T03:11:01.256Z,25.90
2023-02-11T03:13:33.865Z,19.83
2023-02-11T03:16:09.110Z,23.10
2023-02-11T03:18:39.658Z,19.17
2023-02-11T03:21:09.820Z,22.07
2023-02-11T03:23:42.627Z,24.13
2023-02-11T03:26:31.138Z,20.87
2023-02-11T03:29:16.695Z,26.73
2023-02-11T03:32:01.176Z,21.27
2023-02-11T03:34:41.779Z,20.40
2023-02-11T03:37:18.577Z,15.50
2023-02-11T03:39:57.145Z,20.63
2023-02-11T03:42:28.740Z,21.70
2023-02-11T03:45:07.880Z,20.87
2023-02-11T03:47:38.272Z,20.77
2023-02-11T03:50:10.064Z,23.97
2023-02-11T03:52:38.555Z,18.07
2023-02-11T03:55:19.195Z,18.20
2023-02-11T03:57:47.475Z,24.73
2023-02-11T04:00:15.434Z,12.20
2023-02-11T04:02:44.123Z,10.40
2023-02-11T04:05:15.394Z,17.10
2023-02-11T04:07:42.686Z,24.30
2023-02-11T04:10:11.657Z,15.80
2023-02-11T04:12:38.987Z,15.27
2023-02-11T04:15:07.513Z,20.57
2023-02-11T04:17:34.925Z,19.40
2023-02-11T04:20:02.194Z,15.17
2023-02-11T04:22:30.296Z,20.60
2023-02-11T04:24:57.664Z,21.70
2023-02-11T04:27:25.285Z,19.77
2023-02-11T04:29:52.758Z,21.77
2023-02-11T04:32:20.720Z,18.17
2023-02-11T04:34:48.544Z,19.80
2023-02-11T04:37:15.813Z,17.20
2023-02-11T04:39:43.160Z,17.23
2023-02-11T04:42:10.890Z,18.63
2023-02-11T04:44:38.083Z,13.70
2023-02-11T04:47:05.325Z,16.87
2023-02-11T04:49:32.460Z,19.10
2023-02-11T04:51:59.961Z,23.80
2023-02-11T04:54:27.533Z,17.93
2023-02-11T04:56:54.688Z,20.03
2023-02-11T04:59:22.394Z,18.40
2023-02-11T05:01:49.865Z,16.50
2023-02-11T05:04:17.341Z,20.17
2023-02-11T05:06:44.631Z,17.03
2023-02-11T05:09:13.225Z,18.60
2023-02-11T05:11:40.745Z,22.50
2023-02-11T05:14:07.932Z,19.10
2023-02-11T05:16:35.383Z,15.37
2023-02-11T05:19:02.847Z,18.37
2023-02-11T05:21:30.131Z,15.73
2023-02-11T05:23:57.607Z,17.73
2023-02-11T05:26:25.590Z,20.73
2023-02-11T05:28:52.745Z,17.37
2023-02-11T05:31:20.037Z,13.83
2023-02-11T05:33:47.195Z,14.87
2023-02-11T05:36:15.015Z,20.33
2023-02-11T05:38:43.687Z,18.27
2023-02-11T05:41:11.852Z,18.53
2023-02-11T05:43:39.677Z,19.83
2023-02-11T05:46:07.830Z,15.53
2023-02-11T05:48:35.074Z,17.80
2023-02-11T05:51:02.250Z,15.20
2023-02-11T05:53:29.927Z,16.70
2023-02-11T05:55:57.400Z,16.77
2023-02-11T05:58:25.321Z,16.90
2023-02-11T06:00:52.667Z,12.53
2023-02-11T06:03:20.120Z,18.30
2023-02-11T06:05:47.357Z,14.80
2023-02-11T06:08:14.544Z,16.07
2023-02-11T06:10:45.289Z,13.20
2023-02-11T06:13:13.042Z,17.40
2023-02-11T06:15:40.666Z,20.00
2023-02-11T06:18:09.529Z,15.30
2023-02-11T06:20:37.242Z,17.50
2023-02-11T06:23:04.406Z,13.37
2023-02-11T06:25:31.671Z,14.83
2023-02-11T06:27:58.831Z,17.00
2023-02-11T06:30:26.157Z,17.50
2023-02-11T06:32:54.627Z,15.07
2023-02-11T06:35:21.836Z,12.40
2023-02-11T06:37:49.665Z,14.80
2023-02-11T06:40:16.983Z,16.20
2023-02-11T06:42:44.324Z,12.60
2023-02-11T06:45:13.166Z,14.20
2023-02-11T06:47:40.833Z,12.50
2023-02-11T06:50:12.371Z,10.77
2023-02-11T06:52:40.054Z,18.40
2023-02-11T06:55:08.228Z,15.20
2023-02-11T06:57:35.509Z,15.57
2023-02-11T07:00:02.788Z,16.53
2023-02-11T07:02:31.057Z,12.90
2023-02-11T07:04:58.342Z,10.83
2023-02-11T07:07:26.163Z,14.83
2023-02-11T07:09:53.343Z,16.97
2023-02-11T07:12:20.624Z,16.20
2023-02-11T07:14:47.820Z,13.43
2023-02-11T07:17:15.284Z,15.40
2023-02-11T07:19:43.233Z,21.43
2023-02-11T07:22:10.994Z,12.97
2023-02-11T07:24:38.157Z,14.13
2023-02-11T07:27:05.309Z,15.10
2023-02-11T07:29:32.971Z,18.33
2023-02-11T07:32:00.788Z,15.83
2023-02-11T07:34:28.053Z,19.77
2023-02-11T07:36:55.198Z,16.10
2023-02-11T07:39:22.496Z,20.10
2023-02-11T07:41:49.670Z,19.33
2023-02-11T07:44:17.489Z,16.80
2023-02-11T07:46:45.524Z,14.57
2023-02-11T07:49:13.020Z,19.10
2023-02-11T07:51:40.240Z,18.77
2023-02-11T07:54:07.850Z,18.27
2023-02-11T07:56:35.055Z,17.73
2023-02-11T07:59:03.848Z,24.23
2023-02-11T08:01:31.363Z,19.83
2023-02-11T08:03:59.937Z,14.60
2023-02-11T08:06:29.611Z,18.07
2023-02-11T08:08:57.330Z,22.47
2023-02-11T08:11:27.620Z,18.27
2023-02-11T08:13:56.181Z,21.40
2023-02-11T08:16:24.747Z,16.90
2023-02-11T08:18:55.156Z,21.73
2023-02-11T08:21:22.322Z,17.67
2023-02-11T08:23:49.994Z,20.27
2023-02-11T08:26:20.310Z,17.93
2023-02-11T08:28:50.320Z,19.33
2023-02-11T08:31:28.377Z,16.77
2023-02-11T08:33:58.040Z,16.27
2023-02-11T08:36:29.092Z,17.03
2023-02-11T08:39:16.154Z,15.80
2023-02-11T08:41:49.070Z,22.00
2023-02-11T08:44:20.651Z,20.30
2023-02-11T08:46:48.936Z,17.63
2023-02-11T08:49:17.275Z,16.60
2023-02-11T08:51:45.920Z,15.87
2023-02-11T08:54:13.328Z,18.00
2023-02-11T08:56:40.987Z,16.27
2023-02-11T08:59:11.638Z,15.63
2023-02-11T09:01:39.464Z,20.02
2023-02-11T09:04:06.834Z,18.70
2023-02-11T09:06:34.136Z,13.60
2023-02-11T09:09:01.408Z,15.00
2023-02-11T09:11:35.326Z,14.73
2023-02-11T09:14:04.238Z,15.67
2023-02-11T09:16:34.574Z,17.33
2023-02-11T09:19:03.846Z,15.00
2023-02-11T09:21:31.378Z,17.97
2023-02-11T09:23:58.610Z,17.23
2023-02-11T09:26:28.748Z,14.40
2023-02-11T09:28:56.512Z,14.60
2023-02-11T09:31:27.497Z,17.77
2023-02-11T09:33:58.967Z,14.10
2023-02-11T09:36:29.378Z,14.60
2023-02-11T09:38:59.019Z,18.87
2023-02-11T09:41:41.664Z,16.00
2023-02-11T09:44:18.650Z,18.33
2023-02-11T09:46:53.320Z,19.93
2023-02-11T09:49:26.366Z,18.73
2023-02-11T09:52:05.938Z,16.30
2023-02-11T09:54:53.795Z,20.17
2023-02-11T09:57:28.660Z,21.20
2023-02-11T09:59:57.625Z,17.10
2023-02-11T10:02:29.748Z,16.30
2023-02-11T10:05:18.227Z,14.80
2023-02-11T10:08:04.926Z,17.43
2023-02-11T10:10:52.201Z,14.80
2023-02-11T10:13:31.375Z,11.20
2023-02-11T10:16:28.912Z,18.43
2023-02-11T10:19:13.869Z,16.07
2023-02-11T10:21:51.422Z,13.63
2023-02-11T10:24:19.470Z,14.63
2023-02-11T10:26:47.466Z,16.27
2023-02-11T10:29:36.110Z,19.50
2023-02-11T10:32:12.781Z,11.53
2023-02-11T10:34:42.110Z,11.37
2023-02-11T10:37:12.887Z,13.43
2023-02-11T10:39:41.669Z,15.70
2023-02-11T10:42:13.432Z,10.70
2023-02-11T10:44:54.912Z,17.43
2023-02-11T10:47:34.802Z,12.37
2023-02-11T10:50:27.504Z,16.87
2023-02-11T10:53:20.508Z,17.80
2023-02-11T10:55:53.842Z,14.77
2023-02-11T10:58:45.836Z,16.60
2023-02-11T11:01:23.864Z,14.83
2023-02-11T11:03:52.974Z,18.77
2023-02-11T11:06:32.756Z,10.73
2023-02-11T11:09:01.100Z,15.77
2023-02-11T11:11:28.334Z,10.80
2023-02-11T11:14:01.200Z,17.40
2023-02-11T11:16:33.342Z,8.03
2023-02-11T11:19:06.596Z,13.27
2023-02-11T11:21:36.409Z,13.23
2023-02-11T11:24:04.636Z,9.87
2023-02-11T11:26:54.011Z,12.63
2023-02-11T11:29:38.324Z,7.90
2023-02-11T11:32:15.649Z,11.77
2023-02-11T11:34:48.465Z,15.40
2023-02-11T11:37:28.700Z,11.50
2023-02-11T11:40:04.645Z,11.87
2023-02-11T11:42:34.619Z,11.93
2023-02-11T11:45:25.676Z,10.03
2023-02-11T11:48:06.675Z,13.33
2023-02-11T11:50:43.266Z,11.03
2023-02-11T11:53:28.219Z,12.20
2023-02-11T11:56:11.475Z,10.87
2023-02-11T11:58:39.149Z,10.63
2023-02-11T12:01:30.340Z,9.70
2023-02-11T12:04:18.596Z,13.47
2023-02-11T12:07:05.053Z,11.83
2023-02-11T12:09:48.943Z,7.93
2023-02-11T12:12:34.233Z,13.77
2023-02-11T12:15:25.541Z,6.40
2023-02-11T12:18:32.781Z,6.90
2023-02-11T12:21:25.401Z,11.83
2023-02-11T12:24:29.074Z,10.73
2023-02-11T12:27:10.454Z,13.20
2023-02-11T12:30:19.920Z,9.83
2023-02-11T12:33:12.181Z,9.47
2023-02-11T12:35:55.063Z,11.20
2023-02-11T12:38:49.116Z,11.23
2023-02-11T12:42:06.208Z,9.97
2023-02-11T12:44:41.713Z,6.23
2023-02-11T12:47:35.717Z,13.50
2023-02-11T12:50:22.405Z,5.43
2023-02-11T12:53:02.937Z,9.68
2023-02-11T12:55:37.261Z,6.13
2023-02-11T12:58:07.446Z,8.90
2023-02-11T13:00:48.079Z,8.70
2023-02-11T13:03:23.717Z,8.00
2023-02-11T13:05:59.049Z,5.97
2023-02-11T13:08:31.850Z,6.57
2023-02-11T13:11:03.513Z,6.63
2023-02-11T13:13:54.780Z,6.07
2023-02-11T13:16:39.978Z,9.00
2023-02-11T13:19:27.281Z,6.90
2023-02-11T13:22:19.553Z,8.07
2023-02-11T13:25:14.974Z,6.03
2023-02-11T13:27:58.721Z,6.97
2023-02-11T13:30:30.346Z,9.27
2023-02-11T13:32:57.468Z,7.30
2023-02-11T13:35:37.168Z,7.90
2023-02-11T13:38:21.788Z,8.33
2023-02-11T13:41:04.452Z,8.67
2023-02-11T13:43:34.816Z,8.73
2023-02-11T13:46:04.760Z,5.93
2023-02-11T13:48:35.823Z,9.17
2023-02-11T13:51:07.094Z,7.70
2023-02-11T13:53:50.095Z,6.13
2023-02-11T13:56:43.973Z,6.20
2023-02-11T13:59:27.572Z,6.13
2023-02-11T14:02:24.564Z,7.40
2023-02-11T14:05:39.632Z,6.93
2023-02-11T14:08:28.527Z,6.80
2023-02-11T14:11:01.547Z,5.83
2023-02-11T14:13:33.308Z,7.53
2023-02-11T14:16:36.324Z,7.57
2023-02-11T14:19:05.900Z,9.80
2023-02-11T14:21:38.796Z,12.33
2023-02-11T14:24:06.875Z,10.50
2023-02-11T14:26:56.625Z,10.07
2023-02-11T14:30:08.486Z,7.47
2023-02-11T14:32:48.101Z,10.03
2023-02-11T14:35:39.170Z,11.77
2023-02-11T14:38:54.624Z,9.37
2023-02-11T14:41:31.776Z,11.67
2023-02-11T14:44:03.557Z,7.53
2023-02-11T14:46:33.580Z,8.07
2023-02-11T14:49:03.677Z,14.30
2023-02-11T14:51:41.014Z,4.60
2023-02-11T14:54:22.693Z,12.30
2023-02-11T14:57:08.257Z,6.90
2023-02-11T14:59:36.080Z,6.57
2023-02-11T15:02:03.768Z,11.43
2023-02-11T15:04:34.345Z,10.50
2023-02-11T15:07:08.119Z,10.07
2023-02-11T15:09:45.606Z,10.70
2023-02-11T15:12:28.382Z,12.43
2023-02-11T15:14:58.798Z,16.60
2023-02-11T15:17:29.988Z,16.87
2023-02-11T15:20:01.791Z,8.50
2023-02-11T15:22:36.681Z,9.43
2023-02-11T15:25:14.625Z,11.33
2023-02-11T15:27:48.610Z,15.20
2023-02-11T15:30:21.692Z,11.63
2023-02-11T15:33:02.634Z,12.33
2023-02-11T15:35:34.947Z,10.13
2023-02-11T15:38:03.411Z,18.67
2023-02-11T15:40:34.315Z,14.53
2023-02-11T15:43:02.907Z,13.90
2023-02-11T15:45:37.835Z,14.17
2023-02-11T15:48:45.155Z,17.73
2023-02-11T15:51:23.009Z,15.67
2023-02-11T15:53:58.459Z,17.80
2023-02-11T15:56:30.569Z,14.07
2023-02-11T15:59:00.536Z,17.03
2023-02-11T16:01:34.270Z,15.17
2023-02-11T16:04:03.526Z,15.83
2023-02-11T16:06:42.415Z,21.03
2023-02-11T16:09:12.603Z,17.40
2023-02-11T16:11:48.826Z,17.63
2023-02-11T16:14:31.121Z,14.23
2023-02-11T16:17:12.045Z,13.33
2023-02-11T16:19:45.919Z,15.13
2023-02-11T16:22:24.134Z,11.03
2023-02-11T16:24:53.540Z,17.27
2023-02-11T16:27:30.940Z,17.33
2023-02-11T16:29:58.724Z,14.40
2023-02-11T16:32:28.103Z,16.17
2023-02-11T16:34:57.957Z,14.50
2023-02-11T16:37:25.663Z,21.30
2023-02-11T16:39:58.083Z,14.80
2023-02-11T16:42:25.925Z,26.13
2023-02-11T16:44:53.078Z,16.70
2023-02-11T16:47:24.986Z,12.63
2023-02-11T16:49:53.046Z,17.33
2023-02-11T16:52:21.627Z,13.60
2023-02-11T16:54:49.957Z,13.97
2023-02-11T16:57:20.309Z,13.73
2023-02-11T16:59:49.444Z,16.07
2023-02-11T17:02:28.093Z,15.20
2023-02-11T17:04:58.066Z,19.60
2023-02-11T17:07:25.805Z,12.90
2023-02-11T17:09:53.522Z,14.07
2023-02-11T17:12:21.638Z,18.07
2023-02-11T17:14:48.812Z,17.67
2023-02-11T17:17:16.044Z,20.00
2023-02-11T17:19:43.843Z,15.40
2023-02-11T17:22:12.028Z,18.30
2023-02-11T17:24:39.208Z,14.50
2023-02-11T17:27:06.458Z,17.10
2023-02-11T17:29:34.048Z,12.77
2023-02-11T17:32:01.907Z,15.30
2023-02-11T17:34:29.271Z,16.90
2023-02-11T17:36:57.830Z,19.40
2023-02-11T17:39:25.819Z,11.70
2023-02-11T17:41:53.101Z,17.23
2023-02-11T17:44:20.421Z,14.30
2023-02-11T17:46:48.030Z,14.77
2023-02-11T17:49:16.683Z,19.77
2023-02-11T17:51:44.086Z,17.87
2023-02-11T17:54:14.462Z,20.70
2023-02-11T17:56:41.832Z,17.50
2023-02-11T17:59:11.350Z,14.40
2023-02-11T18:01:39.680Z,25.27
2023-02-11T18:04:08.240Z,21.30
2023-02-11T18:06:36.139Z,27.27
2023-02-11T18:09:04.277Z,23.07
2023-02-11T18:11:33.318Z,22.80
2023-02-11T18:14:02.887Z,24.27
2023-02-11T18:16:30.845Z,21.67
2023-02-11T18:18:58.886Z,23.00
2023-02-11T18:21:27.378Z,20.37
2023-02-11T18:23:56.825Z,25.03
2023-02-11T18:26:28.002Z,19.03
2023-02-11T18:28:57.828Z,21.47
2023-02-11T18:31:26.253Z,24.27
2023-02-11T18:33:54.001Z,20.10
2023-02-11T18:36:22.608Z,20.70
2023-02-11T18:38:49.949Z,15.53
2023-02-11T18:41:17.133Z,16.90
2023-02-11T18:43:45.200Z,21.30
2023-02-11T18:46:14.520Z,20.27
2023-02-11T18:48:44.618Z,13.33
2023-02-11T18:51:15.302Z,21.23
2023-02-11T18:53:43.250Z,20.50
2023-02-11T18:56:16.495Z,23.60
2023-02-11T18:58:44.359Z,17.50
2023-02-11T19:01:20.927Z,23.50
2023-02-11T19:03:48.804Z,21.37
2023-02-11T19:06:28.523Z,17.53
2023-02-11T19:08:59.713Z,18.27
2023-02-11T19:11:47.602Z,24.57
2023-02-11T19:14:18.504Z,24.33
2023-02-11T19:16:46.333Z,29.97
2023-02-11T19:19:14.890Z,20.40
2023-02-11T19:21:44.081Z,23.17
2023-02-11T19:24:12.540Z,14.83
2023-02-11T19:26:39.800Z,19.77
2023-02-11T19:29:09.042Z,23.17
2023-02-11T19:31:36.772Z,15.43
2023-02-11T19:34:05.255Z,18.40
2023-02-11T19:36:32.561Z,28.03
2023-02-11T19:39:01.389Z,23.70
2023-02-11T19:41:30.581Z,23.90
2023-02-11T19:43:58.029Z,23.23
2023-02-11T19:46:33.507Z,19.03
2023-02-11T19:49:01.435Z,19.30
2023-02-11T19:51:29.508Z,19.43
2023-02-11T19:53:58.833Z,19.07
2023-02-11T19:56:28.483Z,20.60
2023-02-11T19:58:55.900Z,16.73
2023-02-11T20:01:24.409Z,15.13
2023-02-11T20:03:54.205Z,19.57
2023-02-11T20:06:27.977Z,20.13
2023-02-11T20:08:58.556Z,16.80
2023-02-11T20:11:29.733Z,18.13
2023-02-11T20:13:57.334Z,18.73
2023-02-11T20:16:44.565Z,27.07
2023-02-11T20:19:17.841Z,22.37
2023-02-11T20:21:47.766Z,21.07
2023-02-11T20:24:18.807Z,20.03
2023-02-11T20:26:48.204Z,23.93
2023-02-11T20:29:18.441Z,19.33
2023-02-11T20:31:46.030Z,24.57
2023-02-11T20:34:13.468Z,31.47
2023-02-11T20:36:40.820Z,16.83
2023-02-11T20:39:08.753Z,19.40
2023-02-11T20:41:39.618Z,24.53
2023-02-11T20:44:11.968Z,21.50
2023-02-11T20:46:42.753Z,21.40
2023-02-11T20:49:12.324Z,27.43
2023-02-11T20:51:40.054Z,20.10
2023-02-11T20:54:11.568Z,19.97
2023-02-11T20:56:38.846Z,27.80
2023-02-11T20:59:06.816Z,20.67
2023-02-11T21:01:42.497Z,21.03
2023-02-11T21:04:19.054Z,25.47
2023-02-11T21:06:49.648Z,25.63
2023-02-11T21:09:20.809Z,24.07
2023-02-11T21:11:49.229Z,21.47
2023-02-11T21:14:17.869Z,28.63
2023-02-11T21:16:46.711Z,24.57
2023-02-11T21:19:14.421Z,18.40
2023-02-11T21:21:42.512Z,15.70
2023-02-11T21:24:10.586Z,25.73
2023-02-11T21:26:38.332Z,19.73
2023-02-11T21:29:07.099Z,19.07
2023-02-11T21:31:35.509Z,21.13
2023-02-11T21:34:04.463Z,19.93
2023-02-11T21:36:31.874Z,25.00
2023-02-11T21:39:00.026Z,18.83
2023-02-11T21:41:27.671Z,16.73
2023-02-11T21:43:54.884Z,20.33
2023-02-11T21:46:22.876Z,19.57
2023-02-11T21:48:50.501Z,18.20
2023-02-11T21:51:20.537Z,18.77
2023-02-11T21:53:52.458Z,18.57
2023-02-11T21:56:19.881Z,19.40
2023-02-11T21:58:51.985Z,18.83
2023-02-11T22:01:22.325Z,23.13
2023-02-11T22:03:49.780Z,20.63
2023-02-11T22:06:21.265Z,19.03
2023-02-11T22:08:49.869Z,21.10
2023-02-11T22:11:17.786Z,18.57
2023-02-11T22:13:46.244Z,24.27
2023-02-11T22:16:16.657Z,31.10
2023-02-11T22:18:46.311Z,27.10
2023-02-11T22:21:17.184Z,26.43
2023-02-11T22:23:45.993Z,23.43
2023-02-11T22:26:16.942Z,18.37
2023-02-11T22:28:44.582Z,28.93
2023-02-11T22:31:17.586Z,23.10
2023-02-11T22:33:45.504Z,23.13
2023-02-11T22:36:16.790Z,24.57
2023-02-11T22:38:44.814Z,29.57
2023-02-11T22:41:12.504Z,21.57
2023-02-11T22:43:42.415Z,19.77
2023-02-11T22:46:12.156Z,25.70
2023-02-11T22:48:40.050Z,24.00
2023-02-11T22:51:12.767Z,22.17
2023-02-11T22:53:40.259Z,16.10
2023-02-11T22:56:15.822Z,20.47
2023-02-11T22:58:43.372Z,32.20
2023-02-11T23:01:11.225Z,29.43
2023-02-11T23:03:39.049Z,21.80
2023-02-11T23:06:06.629Z,19.50
2023-02-11T23:08:33.943Z,24.40
2023-02-11T23:11:09.689Z,19.23
2023-02-11T23:13:39.611Z,19.83
2023-02-11T23:16:09.933Z,16.17
2023-02-11T23:18:38.558Z,19.37
2023-02-11T23:21:12.080Z,18.93
2023-02-11T23:23:39.824Z,15.00
2023-02-11T23:26:12.315Z,15.13
2023-02-11T23:28:40.329Z,19.20
2023-02-11T23:31:21.161Z,11.30
2023-02-11T23:33:49.993Z,10.60
2023-02-11T23:36:18.285Z,10.60
2023-02-11T23:38:45.851Z,12.13
2023-02-11T23:41:13.800Z,14.73
2023-02-11T23:43:41.170Z,11.97
2023-02-11T23:46:09.697Z,9.83
2023-02-11T23:48:37.568Z,8.77
2023-02-11T23:51:05.210Z,20.30
2023-02-11T23:53:32.437Z,9.67
2023-02-11T23:55:59.613Z,10.17
2023-02-11T23:58:26.940Z,6.70
